Time;durP1;ratioP1;P1;durP2;ratioP2;P2;SDS_P1;SDS_P2;PMS_P1;PMS_P2;Temp;Humidity;BMP_temperature;BMP_pressure;BME280_temperature;BME280_humidity;BME280_pressure;Samples;Min_cycle;Max_cycle;Signal;HPM_P1;HPM_P2
2024/04/21 00:01:37;;;;;;;;;;;;;;;-144.99;93.89;52541.84;5451121;26;20370;-64
2024/04/21 00:04:06;;;;;;;;;;;;;;;-144.99;93.82;52488.84;5474553;26;19934;-65
2024/04/21 00:06:32;;;;;;;;;;;;;;;-144.99;93.43;52482.75;5475001;26;19935;-64
2024/04/21 00:09:03;;;;;;;;;;;;;;;-144.99;93.63;52460.31;5476301;26;20337;-65
2024/04/21 00:11:29;;;;;;;;;;;;;;;-144.99;93.93;52529.63;5463039;26;19928;-65
2024/04/21 00:13:57;;;;;;;;;;;;;;;-144.99;94.03;52464.41;5459379;26;19935;-65
2024/04/21 00:16:24;;;;;;;;;;;;;;;-144.99;94.06;52501.09;5478361;26;19928;-65
2024/04/21 00:18:52;;;;;;;;;;;;;;;-144.99;93.97;52507.19;5479722;26;19932;-66
2024/04/21 00:21:18;;;;;;;;;;;;;;;-144.99;93.90;52513.31;5469860;26;19952;-61
2024/04/21 00:23:46;;;;;;;;;;;;;;;-144.99;94.00;52501.09;5453363;26;19927;-61
2024/04/21 00:26:15;;;;;;;;;;;;;;;-144.99;93.93;52521.47;5476326;26;19928;-61
2024/04/21 00:28:45;;;;;;;;;;;;;;;-144.99;93.94;52492.94;5478505;26;19928;-62
2024/04/21 00:31:12;;;;;;;;;;;;;;;-144.99;93.67;52509.25;5479656;26;19959;-61
2024/04/21 00:33:40;;;;;;;;;;;;;;;-144.99;94.01;52517.41;5466210;26;19932;-61
2024/04/21 00:36:06;;;;;;;;;;;;;;;-144.99;94.12;52501.09;5463029;26;19996;-61
2024/04/21 00:38:35;;;;;;;;;;;;;;;-144.99;94.11;52484.78;5478768;26;19932;-61
2024/04/21 00:41:00;;;;;;;;;;;;;;;-144.99;94.27;52492.94;5471433;26;19959;-60
2024/04/21 00:43:32;;;;;;;;;;;;;;;-144.99;94.11;52468.47;5452433;26;19956;-62
2024/04/21 00:45:58;;;;;;;;;;;;;;;-144.99;94.34;52458.28;5095900;26;9999957;-61
2024/04/21 00:48:27;;;;;;;;;;;;;;;-144.99;94.41;52499.06;5472071;26;19932;-63
2024/04/21 00:50:54;;;;;;;;;;;;;;;-144.99;94.47;52533.69;5479554;26;20279;-62
2024/04/21 00:53:24;;;;;;;;;;;;;;;-144.99;94.67;52492.94;5454882;26;19929;-61
2024/04/21 00:55:51;;;;;;;;;;;;;;;-144.99;94.76;52468.47;5480144;26;19928;-62
2024/04/21 00:58:21;;;;;;;;;;;;;;;-144.99;94.83;52492.94;5471103;26;19928;-62
2024/04/21 01:00:49;;;;;;;;;;;;;;;-144.99;94.81;52503.13;5478060;26;20507;-64
2024/04/21 01:03:18;;;;;;;;;;;;;;;-144.99;94.91;52488.84;5468498;26;19939;-63
2024/04/21 01:05:44;;;;;;;;;;;;;;;-144.99;94.97;52513.31;5467610;26;20148;-63
2024/04/21 01:08:12;;;;;;;;;;;;;;;-144.99;95.14;52511.28;5481141;26;20010;-62
2024/04/21 01:10:38;;;;;;;;;;;;;;;-144.99;95.18;52480.72;5481662;26;19928;-62
2024/04/21 01:13:13;;;;;;;;;;;;;;;-144.99;95.42;52492.94;5466254;26;20425;-62
2024/04/21 01:15:39;;;;;;;;;;;;;;;-144.99;95.72;52517.41;5467008;26;19927;-61
2024/04/21 01:18:11;;;;;;;;;;;;;;;-144.99;95.90;52550.00;5474072;26;19930;-62
2024/04/21 01:20:37;;;;;;;;;;;;;;;-144.99;96.00;52497.00;5480168;26;19935;-62
2024/04/21 01:23:08;;;;;;;;;;;;;;;-144.99;96.10;52501.09;5473077;26;19928;-65
2024/04/21 01:25:34;;;;;;;;;;;;;;;-144.99;96.23;52480.72;5466129;26;19935;-65
2024/04/21 01:28:03;;;;;;;;;;;;;;;-144.99;96.24;52509.25;5478871;26;19936;-65
2024/04/21 01:30:29;;;;;;;;;;;;;;;-144.99;96.45;52501.09;5476568;26;19935;-65
2024/04/21 01:32:58;;;;;;;;;;;;;;;-144.99;96.52;52519.44;5482528;26;19936;-64
2024/04/21 01:35:24;;;;;;;;;;;;;;;-144.99;96.51;52509.25;5467613;26;19933;-65
2024/04/21 01:37:52;;;;;;;;;;;;;;;-144.99;96.80;52476.63;5479714;26;19928;-63
2024/04/21 01:40:21;;;;;;;;;;;;;;;-144.99;96.82;52537.78;5484487;26;19927;-64
2024/04/21 01:42:50;;;;;;;;;;;;;;;-144.99;96.98;52521.47;5478670;26;19928;-63
2024/04/21 01:45:16;;;;;;;;;;;;;;;-144.99;97.32;52505.16;5468510;26;20036;-64
2024/04/21 01:47:44;;;;;;;;;;;;;;;-144.99;97.60;52533.69;5472579;26;19927;-64
2024/04/21 01:50:10;;;;;;;;;;;;;;;-144.99;97.62;52517.41;5484048;26;19928;-63
2024/04/21 01:52:39;;;;;;;;;;;;;;;-144.99;98.17;52521.47;5473390;26;20356;-64
2024/04/21 01:55:05;;;;;;;;;;;;;;;-144.99;98.14;52501.09;5463830;26;19947;-66
2024/04/21 01:57:37;;;;;;;;;;;;;;;-144.99;98.19;52509.25;5475537;26;19928;-66
2024/04/21 02:00:04;;;;;;;;;;;;;;;-144.99;98.13;52452.16;5475161;26;19928;-66
2024/04/21 02:02:33;;;;;;;;;;;;;;;-144.99;98.44;52533.69;5479347;26;19928;-66
2024/04/21 02:04:59;;;;;;;;;;;;;;;-144.99;98.49;52476.63;5474469;26;19936;-66
2024/04/21 02:07:27;;;;;;;;;;;;;;;-144.99;98.49;52486.81;5468676;26;19928;-63
2024/04/21 02:09:53;;;;;;;;;;;;;;;-144.99;98.81;52503.13;5480631;26;19928;-64
2024/04/21 02:12:22;;;;;;;;;;;;;;;-144.99;98.59;52525.56;5458051;26;20273;-64
2024/04/21 02:14:50;;;;;;;;;;;;;;;-144.99;98.84;52517.41;5472480;26;20358;-64
2024/04/21 02:17:19;;;;;;;;;;;;;;;-144.99;98.79;52505.16;5464679;26;20017;-64
2024/04/21 02:19:45;;;;;;;;;;;;;;;-144.99;98.91;52478.66;5468771;26;19928;-65
2024/04/21 02:22:13;;;;;;;;;;;;;;;-144.99;99.43;52497.00;5473266;26;19992;-65
2024/04/21 02:24:40;;;;;;;;;;;;;;;-144.99;99.62;52484.78;5477361;26;19928;-66
2024/04/21 02:27:08;;;;;;;;;;;;;;;-144.99;99.76;52488.84;5472048;26;20218;-67
2024/04/21 02:29:34;;;;;;;;;;;;;;;-144.99;100.00;52507.19;5456237;26;20435;-67
2024/04/21 02:32:06;;;;;;;;;;;;;;;-144.99;100.00;52484.78;5468192;26;19928;-67
2024/04/21 02:34:32;;;;;;;;;;;;;;;-144.99;100.00;52517.41;5474001;26;20303;-67
2024/04/21 02:37:00;;;;;;;;;;;;;;;-144.99;100.00;52492.94;5476592;26;19928;-68
2024/04/21 02:39:26;;;;;;;;;;;;;;;-144.99;100.00;52521.47;5471056;26;19936;-67
2024/04/21 02:41:55;;;;;;;;;;;;;;;-144.99;100.00;52492.94;5476193;26;19940;-66
2024/04/21 02:44:21;;;;;;;;;;;;;;;-144.99;100.00;52519.44;5477805;26;19934;-67
2024/04/21 02:46:49;;;;;;;;;;;;;;;-144.99;100.00;52521.47;5469609;26;19972;-68
2024/04/21 02:49:18;;;;;;;;;;;;;;;-144.99;100.00;52492.94;5461874;26;19936;-67
2024/04/21 02:51:47;;;;;;;;;;;;;;;-144.99;100.00;52521.47;5461905;26;19946;-67
2024/04/21 02:54:13;;;;;;;;;;;;;;;-144.99;100.00;52531.66;5475114;26;19935;-67
2024/04/21 02:56:41;;;;;;;;;;;;;;;-144.99;100.00;52464.41;5477648;26;20059;-68
2024/04/21 02:59:07;;;;;;;;;;;;;;;-144.99;100.00;52521.47;5474315;26;19940;-69
2024/04/21 03:01:35;;;;;;;;;;;;;;;-144.99;100.00;52488.84;5457390;26;19929;-68
2024/04/21 03:04:02;;;;;;;;;;;;;;;-144.99;100.00;52497.00;5470184;26;19969;-67
2024/04/21 03:06:33;;;;;;;;;;;;;;;-144.99;100.00;52488.84;5473312;26;19939;-66
2024/04/21 03:08:59;;;;;;;;;;;;;;;-144.99;100.00;52480.72;5464313;26;19966;-67
2024/04/21 03:11:28;;;;;;;;;;;;;;;-144.99;100.00;52501.09;5469306;26;19933;-68
2024/04/21 03:13:54;;;;;;;;;;;;;;;-144.99;100.00;52488.84;5469600;26;19999;-64
2024/04/21 03:16:22;;;;;;;;;;;;;;;-144.99;100.00;52533.69;5466495;26;19973;-65
2024/04/21 03:18:48;;;;;;;;;;;;;;;-144.99;100.00;52494.97;5462265;26;20350;-67
2024/04/21 03:21:18;;;;;;;;;;;;;;;-144.99;100.00;52521.47;5469667;26;19928;-69
2024/04/21 03:23:47;;;;;;;;;;;;;;;-144.99;100.00;52472.56;5459898;26;19928;-68
2024/04/21 03:26:15;;;;;;;;;;;;;;;-144.99;100.00;52515.34;5470501;26;19927;-68
2024/04/21 03:28:41;;;;;;;;;;;;;;;-144.99;100.00;52523.50;5470640;26;19993;-68
2024/04/21 03:31:10;;;;;;;;;;;;;;;-144.99;100.00;52450.13;5472776;26;19940;-69
2024/04/21 03:33:35;;;;;;;;;;;;;;;-144.99;100.00;52503.13;5469493;26;19940;-71
2024/04/21 03:36:05;;;;;;;;;;;;;;;-144.99;100.00;52501.09;5480031;26;20288;-65
2024/04/21 03:38:34;;;;;;;;;;;;;;;-144.99;100.00;52509.25;5448535;26;19928;-65
2024/04/21 03:41:05;;;;;;;;;;;;;;;-144.99;100.00;52505.16;5464945;26;20262;-64
2024/04/21 03:43:33;;;;;;;;;;;;;;;-144.99;100.00;52517.41;5462081;26;20284;-65
2024/04/21 03:46:02;;;;;;;;;;;;;;;-144.99;100.00;52458.28;5463639;26;19928;-65
2024/04/21 03:48:28;;;;;;;;;;;;;;;-144.99;100.00;52448.09;5476894;26;20000;-65
2024/04/21 03:50:56;;;;;;;;;;;;;;;-144.99;100.00;52509.25;5459659;26;19940;-65
2024/04/21 03:53:23;;;;;;;;;;;;;;;-144.99;100.00;52464.41;5472727;26;19946;-68
2024/04/21 03:55:51;;;;;;;;;;;;;;;-144.99;100.00;52509.25;5462163;26;20000;-69
2024/04/21 03:58:20;;;;;;;;;;;;;;;-144.99;100.00;52513.31;5476261;26;19937;-69
2024/04/21 04:00:49;;;;;;;;;;;;;;;-144.99;100.00;52488.84;5469083;26;19935;-69
2024/04/21 04:03:15;;;;;;;;;;;;;;;-144.99;100.00;52505.16;5481596;26;20214;-69
2024/04/21 04:05:44;;;;;;;;;;;;;;;-144.99;100.00;52492.94;5467017;26;20373;-69
2024/04/21 04:08:10;;;;;;;;;;;;;;;-144.99;100.00;52476.63;5474743;26;20362;-70
2024/04/21 04:10:40;;;;;;;;;;;;;;;-144.99;100.00;52497.00;5468643;26;19961;-68
2024/04/21 04:13:05;;;;;;;;;;;;;;;-144.99;100.00;52509.25;5472856;26;19928;-68
2024/04/21 04:15:37;;;;;;;;;;;;;;;-144.99;100.00;52480.72;5474673;26;20341;-69
2024/04/21 04:18:03;;;;;;;;;;;;;;;-144.99;100.00;52482.75;5462852;26;19928;-69
2024/04/21 04:20:31;;;;;;;;;;;;;;;-144.99;100.00;52488.84;5480031;26;19956;-69
2024/04/21 04:22:57;;;;;;;;;;;;;;;-144.99;100.00;52460.31;5460747;26;19969;-69
2024/04/21 04:25:26;;;;;;;;;;;;;;;-144.99;100.00;52484.78;5473465;26;19947;-68
2024/04/21 04:27:52;;;;;;;;;;;;;;;-144.99;100.00;52497.00;5467012;26;20330;-69
2024/04/21 04:30:21;;;;;;;;;;;;;;;-144.99;100.00;52480.72;5473148;26;19996;-70
2024/04/21 04:32:52;;;;;;;;;;;;;;;-144.99;100.00;52497.00;5477942;26;19952;-71
2024/04/21 04:35:18;;;;;;;;;;;;;;;-144.99;100.00;52494.97;5475978;26;19928;-71
2024/04/21 04:37:47;;;;;;;;;;;;;;;-144.99;100.00;52505.16;5464731;26;19939;-72
2024/04/21 04:40:13;;;;;;;;;;;;;;;-144.99;100.00;52460.31;5473492;26;20234;-71
2024/04/21 04:42:43;;;;;;;;;;;;;;;-144.99;100.00;52505.16;5480487;26;19935;-71
2024/04/21 04:45:09;;;;;;;;;;;;;;;-144.99;100.00;52492.94;5467026;26;20319;-72
2024/04/21 04:47:37;;;;;;;;;;;;;;;-144.99;100.00;52517.41;5464544;26;19928;-71
2024/04/21 04:50:06;;;;;;;;;;;;;;;-144.99;100.00;52444.03;5463471;26;19928;-70
2024/04/21 04:52:35;;;;;;;;;;;;;;;-144.99;100.00;52501.09;5480034;26;19943;-72
2024/04/21 04:55:01;;;;;;;;;;;;;;;-144.99;100.00;52494.97;5471439;26;19942;-70
2024/04/21 04:57:30;;;;;;;;;;;;;;;-144.99;100.00;52456.25;5479506;26;19934;-69
2024/04/21 04:59:55;;;;;;;;;;;;;;;-144.99;100.00;52521.47;5470916;26;19928;-69
2024/04/21 05:02:24;;;;;;;;;;;;;;;-144.99;100.00;52476.63;5482077;26;19995;-69
2024/04/21 05:04:50;;;;;;;;;;;;;;;-144.99;100.00;52484.78;5482962;26;19928;-71
2024/04/21 05:07:21;;;;;;;;;;;;;;;-144.99;100.00;52452.16;5481348;26;19936;-69
2024/04/21 05:09:47;;;;;;;;;;;;;;;-144.99;100.00;52460.31;5454548;26;19960;-64
2024/04/21 05:12:16;;;;;;;;;;;;;;;-144.99;100.00;52437.91;5471671;26;19954;-63
2024/04/21 05:14:43;;;;;;;;;;;;;;;-144.99;100.00;52492.94;5480629;26;19958;-64
2024/04/21 05:17:11;;;;;;;;;;;;;;;-144.99;100.00;52466.44;5462368;26;19932;-64
2024/04/21 05:19:37;;;;;;;;;;;;;;;-144.99;100.00;52450.13;5479667;26;20272;-64
2024/04/21 05:22:06;;;;;;;;;;;;;;;-144.99;100.00;52480.72;5465387;26;19944;-65
2024/04/21 05:24:34;;;;;;;;;;;;;;;-144.99;100.00;52462.34;5481656;26;20339;-64
2024/04/21 05:27:03;;;;;;;;;;;;;;;-144.99;100.00;52456.25;5455897;26;20230;-64
2024/04/21 05:29:29;;;;;;;;;;;;;;;-144.99;100.00;52427.72;5480894;26;20353;-64
2024/04/21 05:31:58;;;;;;;;;;;;;;;-144.99;100.00;52476.63;5468642;26;19939;-64
2024/04/21 05:34:24;;;;;;;;;;;;;;;-144.99;100.00;52501.09;5477702;26;19999;-69
2024/04/21 05:36:52;;;;;;;;;;;;;;;-144.99;100.00;52482.75;5475816;26;20358;-68
2024/04/21 05:39:19;;;;;;;;;;;;;;;-144.99;100.00;52474.59;5481717;26;20370;-66
2024/04/21 05:41:50;;;;;;;;;;;;;;;-144.99;100.00;52452.16;5469463;26;19935;-66
2024/04/21 05:44:16;;;;;;;;;;;;;;;-144.99;100.00;52435.88;5442380;26;20200;-66
2024/04/21 05:46:44;;;;;;;;;;;;;;;-144.99;100.00;52476.63;5476487;26;19932;-64
2024/04/21 05:49:10;;;;;;;;;;;;;;;-144.99;100.00;52468.47;5479375;26;19952;-64
2024/04/21 05:51:39;;;;;;;;;;;;;;;-144.99;99.71;52464.41;5474811;26;19993;-63
2024/04/21 05:54:05;;;;;;;;;;;;;;;-144.99;99.31;52472.56;5468497;26;20004;-63
2024/04/21 05:56:33;;;;;;;;;;;;;;;-144.99;98.99;52433.81;5477534;26;20258;-64
2024/04/21 05:59:02;;;;;;;;;;;;;;;-144.99;98.72;52458.28;5479476;26;20222;-64
2024/04/21 06:01:30;;;;;;;;;;;;;;;-144.99;98.21;52433.81;5478207;26;19948;-64
2024/04/21 06:03:56;;;;;;;;;;;;;;;-144.99;97.85;52439.94;5454789;26;20440;-64
2024/04/21 06:06:24;;;;;;;;;;;;;;;-144.99;97.51;52460.31;5477527;26;19960;-64
2024/04/21 06:08:50;;;;;;;;;;;;;;;-144.99;97.28;52419.56;5481824;26;19980;-64
2024/04/21 06:11:19;;;;;;;;;;;;;;;-144.99;95.91;52435.88;5480552;26;19939;-64
2024/04/21 06:13:45;;;;;;;;;;;;;;;-144.99;94.71;52427.72;5464908;26;20242;-64
2024/04/21 06:16:16;;;;;;;;;;;;;;;-144.99;92.42;52468.47;5474178;26;20118;-65
2024/04/21 06:18:42;;;;;;;;;;;;;;;-144.99;90.44;52419.56;5478137;26;19928;-65
2024/04/21 06:21:10;;;;;;;;;;;;;;;-144.99;88.55;52492.94;5479075;26;20004;-65
2024/04/21 06:23:37;;;;;;;;;;;;;;;-144.99;88.17;52415.47;5475624;26;19932;-62
2024/04/21 06:26:06;;;;;;;;;;;;;;;-144.99;86.78;52446.06;5462139;26;20276;-62
2024/04/21 06:28:31;;;;;;;;;;;;;;;-144.99;82.74;52423.63;5477183;26;20318;-64
2024/04/21 06:31:00;;;;;;;;;;;;;;;-144.99;82.86;52456.25;5480326;26;19936;-62
2024/04/21 06:33:29;;;;;;;;;;;;;;;-144.99;81.38;52439.94;5479857;26;19932;-63
2024/04/21 06:35:57;;;;;;;;;;;;;;;-144.99;76.39;52403.25;5464455;26;20038;-63
2024/04/21 06:38:23;;;;;;;;;;;;;;;-144.99;76.60;52446.06;5476410;26;20226;-63
2024/04/21 06:40:52;;;;;;;;;;;;;;;-144.99;74.98;52431.78;5481102;26;20204;-63
2024/04/21 06:43:17;;;;;;;;;;;;;;;-144.99;75.10;52460.31;5480900;26;20370;-63
2024/04/21 06:45:48;;;;;;;;;;;;;;;-144.99;75.24;52460.31;5466398;26;19928;-62
2024/04/21 06:48:14;;;;;;;;;;;;;;;-144.99;73.73;52427.72;5464358;26;19928;-62
2024/04/21 06:50:45;;;;;;;;;;;;;;;-144.99;72.22;52429.75;5481444;26;20164;-62
2024/04/21 06:53:11;;;;;;;;;;;;;;;-144.99;72.29;52439.94;5437936;26;19928;-62
2024/04/21 06:55:40;;;;;;;;;;;;;;;-144.99;72.68;52435.88;5475086;26;19928;-61
2024/04/21 06:58:06;;;;;;;;;;;;;;;-144.99;72.68;52427.72;5459040;26;20035;-63
2024/04/21 07:00:36;;;;;;;;;;;;;;;-144.99;70.88;52446.06;5475643;26;19928;-69
2024/04/21 07:03:02;;;;;;;;;;;;;;;-144.99;71.32;52423.63;5477719;26;19928;-63
2024/04/21 07:05:31;;;;;;;;;;;;;;;-144.99;70.76;52423.63;5467668;26;20008;-65
2024/04/21 07:07:59;;;;;;;;;;;;;;;-144.99;71.84;52444.03;5475032;26;20044;-66
2024/04/21 07:10:28;;;;;;;;;;;;;;;-144.99;73.33;52446.06;5478889;26;19997;-66
2024/04/21 07:12:54;;;;;;;;;;;;;;;-144.99;75.21;52433.81;5477892;26;20210;-66
2024/04/21 07:15:22;;;;;;;;;;;;;;;-144.99;73.18;52407.31;5473599;26;19928;-67
2024/04/21 07:17:48;;;;;;;;;;;;;;;-144.99;71.93;52413.44;5458918;26;19935;-66
2024/04/21 07:20:18;;;;;;;;;;;;;;;-144.99;69.95;52415.47;5478983;26;19940;-67
2024/04/21 07:22:44;;;;;;;;;;;;;;;-144.99;70.38;52417.53;5483840;26;19940;-67
2024/04/21 07:25:17;;;;;;;;;;;;;;;-144.99;68.62;52444.03;5482890;26;19928;-68
2024/04/21 07:27:43;;;;;;;;;;;;;;;-144.99;66.38;52393.06;5458695;26;19935;-67
2024/04/21 07:30:12;;;;;;;;;;;;;;;-144.99;67.73;52399.19;5475756;26;19939;-67
2024/04/21 07:32:38;;;;;;;;;;;;;;;-144.99;66.66;52395.09;5478010;26;19928;-67
2024/04/21 07:35:08;;;;;;;;;;;;;;;-144.99;66.64;52399.19;5483678;26;19934;-66
2024/04/21 07:37:34;;;;;;;;;;;;;;;-144.99;63.33;52391.03;5470060;26;20052;-66
2024/04/21 07:40:03;;;;;;;;;;;;;;;-144.99;63.13;52431.78;5482062;26;19981;-66
2024/04/21 07:42:32;;;;;;;;;;;;;;;-144.99;62.52;52431.78;5480341;26;20035;-67
2024/04/21 07:45:00;;;;;;;;;;;;;;;-144.99;62.68;52407.31;5482870;26;19936;-66
2024/04/21 07:47:26;;;;;;;;;;;;;;;-144.99;61.58;52415.47;5473580;26;19936;-66
2024/04/21 07:49:54;;;;;;;;;;;;;;;-144.99;62.04;52452.16;5469737;26;20255;-66
2024/04/21 07:52:20;;;;;;;;;;;;;;;-144.99;62.13;52448.09;5476144;26;20925;-66
2024/04/21 07:54:49;;;;;;;;;;;;;;;-144.99;61.50;52464.41;5473277;26;20243;-66
2024/04/21 07:57:15;;;;;;;;;;;;;;;-144.99;59.93;52403.25;5482412;26;19935;-66
2024/04/21 07:59:46;;;;;;;;;;;;;;;-144.99;60.38;52431.78;5456565;26;19939;-66
2024/04/21 08:02:12;;;;;;;;;;;;;;;-144.99;60.20;52403.25;5477244;26;20374;-66
2024/04/21 08:04:40;;;;;;;;;;;;;;;-144.99;59.31;52421.59;5477443;26;19928;-66
2024/04/21 08:07:06;;;;;;;;;;;;;;;-144.99;58.14;52427.72;5484256;26;19939;-66
2024/04/21 08:09:35;;;;;;;;;;;;;;;-144.99;55.50;52468.47;5462740;26;19932;-66
2024/04/21 08:12:01;;;;;;;;;;;;;;;-144.99;56.03;52419.56;5468215;26;19960;-66
2024/04/21 08:14:30;;;;;;;;;;;;;;;-144.99;55.79;52448.09;5479904;26;20287;-66
2024/04/21 08:16:58;;;;;;;;;;;;;;;-144.99;56.54;52431.78;5481344;26;19928;-66
2024/04/21 08:19:27;;;;;;;;;;;;;;;-144.99;55.33;52354.34;5483082;26;20253;-66
2024/04/21 08:21:53;;;;;;;;;;;;;;;-144.99;55.76;52431.78;5479324;26;19956;-66
2024/04/21 08:24:22;;;;;;;;;;;;;;;-144.99;55.73;52448.09;5462706;26;20001;-65
2024/04/21 08:26:49;;;;;;;;;;;;;;;-144.99;55.53;52391.03;5457259;26;19928;-66
2024/04/21 08:29:17;;;;;;;;;;;;;;;-144.99;55.92;52417.53;5466504;26;19940;-66
2024/04/21 08:31:43;;;;;;;;;;;;;;;-144.99;54.23;52419.56;5478325;26;19935;-65
2024/04/21 08:34:15;;;;;;;;;;;;;;;-144.99;54.53;52366.56;5466792;26;19928;-67
2024/04/21 08:36:40;;;;;;;;;;;;;;;-144.99;54.09;52395.09;5476262;26;19927;-66
2024/04/21 08:39:09;;;;;;;;;;;;;;;-144.99;54.45;52362.50;5480143;26;19930;-66
2024/04/21 08:41:39;;;;;;;;;;;;;;;-144.99;53.50;52382.88;5483360;26;19928;-66
2024/04/21 08:44:09;;;;;;;;;;;;;;;-144.99;53.00;52384.91;5474260;26;19932;-66
2024/04/21 08:46:36;;;;;;;;;;;;;;;-144.99;53.05;52358.41;5468830;26;19928;-66
2024/04/21 08:49:05;;;;;;;;;;;;;;;-144.99;52.80;52444.03;5471958;26;19936;-66
2024/04/21 08:51:34;;;;;;;;;;;;;;;-144.99;52.86;52356.38;5476924;26;19928;-67
2024/04/21 08:54:02;;;;;;;;;;;;;;;-144.99;52.84;52374.72;5476339;26;20046;-66
2024/04/21 08:56:30;;;;;;;;;;;;;;;-144.99;53.98;52472.56;5459536;26;20535;-67
2024/04/21 08:58:58;;;;;;;;;;;;;;;-144.99;53.30;52399.19;5476435;26;19928;-67
2024/04/21 09:01:26;;;;;;;;;;;;;;;-144.99;53.67;52382.88;5468737;26;19928;-66
2024/04/21 09:03:54;;;;;;;;;;;;;;;-144.99;53.22;52448.09;5481977;26;20263;-66
2024/04/21 09:06:22;;;;;;;;;;;;;;;-144.99;54.01;52419.56;5467177;26;19939;-66
2024/04/21 09:08:53;;;;;;;;;;;;;;;-144.99;53.53;52374.72;5480569;26;20278;-66
2024/04/21 09:11:19;;;;;;;;;;;;;;;-144.99;53.34;52419.56;5462588;26;19929;-66
2024/04/21 09:13:48;;;;;;;;;;;;;;;-144.99;53.86;52374.72;5476057;26;19934;-66
2024/04/21 09:16:13;;;;;;;;;;;;;;;-144.99;53.62;52431.78;5466839;26;19928;-66
2024/04/21 09:18:42;;;;;;;;;;;;;;;-144.99;53.04;52415.47;5471311;26;19934;-67
2024/04/21 09:21:08;;;;;;;;;;;;;;;-144.99;53.18;52382.88;5482509;26;19927;-67
2024/04/21 09:23:40;;;;;;;;;;;;;;;-144.99;53.23;52431.78;5481403;26;20346;-66
2024/04/21 09:26:09;;;;;;;;;;;;;;;-144.99;52.56;52415.47;5477594;26;20234;-66
2024/04/21 09:28:37;;;;;;;;;;;;;;;-144.99;52.62;52403.25;5472550;26;19928;-67
2024/04/21 09:31:03;;;;;;;;;;;;;;;-144.99;52.23;52352.28;5483357;26;20379;-66
2024/04/21 09:33:32;;;;;;;;;;;;;;;-144.99;51.76;52419.56;5477841;26;19928;-67
2024/04/21 09:35:58;;;;;;;;;;;;;;;-144.99;50.47;52393.06;5483299;26;20265;-70
2024/04/21 09:38:27;;;;;;;;;;;;;;;-144.99;51.04;52395.09;5460046;26;19928;-70
2024/04/21 09:40:54;;;;;;;;;;;;;;;-144.99;50.49;52391.03;5468182;26;19928;-70
2024/04/21 09:43:30;;;;;;;;;;;;;;;-144.99;50.07;52333.94;5484758;26;19928;-70
2024/04/21 09:45:57;;;;;;;;;;;;;;;-144.99;50.60;52358.41;5491098;26;19962;-70
2024/04/21 09:48:29;;;;;;;;;;;;;;;-144.99;50.38;52338.03;5490057;26;19935;-71
2024/04/21 09:50:56;;;;;;;;;;;;;;;-144.99;50.44;52374.72;5493177;26;19928;-70
2024/04/21 09:53:25;;;;;;;;;;;;;;;-144.99;49.26;52374.72;5494077;26;19928;-71
2024/04/21 09:55:54;;;;;;;;;;;;;;;-144.99;50.50;52370.63;5494751;26;19934;-71
2024/04/21 09:58:26;;;;;;;;;;;;;;;-144.99;50.78;52346.19;5483485;26;19928;-71
2024/04/21 10:00:53;;;;;;;;;;;;;;;-144.99;50.18;52346.19;5485270;26;19928;-71
2024/04/21 10:03:21;;;;;;;;;;;;;;;-144.99;49.78;52346.19;5499795;26;19935;-71
2024/04/21 10:05:49;;;;;;;;;;;;;;;-144.99;49.37;52350.25;5486648;26;19928;-71
2024/04/21 10:08:18;;;;;;;;;;;;;;;-144.99;49.47;52360.44;5502316;26;19996;-71
2024/04/21 10:10:45;;;;;;;;;;;;;;;-144.99;49.12;52403.25;5487945;26;19927;-71
2024/04/21 10:13:14;;;;;;;;;;;;;;;-144.99;48.56;52333.94;5496175;26;19936;-71
2024/04/21 10:15:44;;;;;;;;;;;;;;;-144.99;48.22;52342.09;5502326;26;19928;-71
2024/04/21 10:18:23;;;;;;;;;;;;;;;-144.99;48.14;52360.44;5503147;26;19936;-71
2024/04/21 10:20:49;;;;;;;;;;;;;;;-144.99;47.97;52333.94;5471369;26;19940;-69
2024/04/21 10:23:18;;;;;;;;;;;;;;;-144.99;48.31;52350.25;5482158;26;19928;-69
2024/04/21 10:25:46;;;;;;;;;;;;;;;-144.99;48.98;52378.78;5485128;26;19928;-69
2024/04/21 10:28:16;;;;;;;;;;;;;;;-144.99;49.42;52366.56;5491412;26;19978;-69
2024/04/21 10:30:44;;;;;;;;;;;;;;;-144.99;49.76;52374.72;5489087;26;19955;-70
2024/04/21 10:33:15;;;;;;;;;;;;;;;-144.99;49.31;52366.56;5487570;26;19939;-69
2024/04/21 10:35:41;;;;;;;;;;;;;;;-144.99;50.23;52427.72;5486494;26;19928;-69
2024/04/21 10:38:10;;;;;;;;;;;;;;;-144.99;49.53;52382.88;5484404;26;20338;-69
2024/04/21 10:40:38;;;;;;;;;;;;;;;-144.99;49.88;52399.19;5480203;26;19943;-69
2024/04/21 10:43:07;;;;;;;;;;;;;;;-144.99;50.35;52472.56;5477428;26;19934;-69
2024/04/21 10:45:36;;;;;;;;;;;;;;;-144.99;50.50;52423.63;5483390;26;20383;-69
2024/04/21 10:48:08;;;;;;;;;;;;;;;-144.99;50.87;52378.78;4723228;26;10000802;-69
2024/04/21 10:50:35;;;;;;;;;;;;;;;-144.99;51.34;52448.09;5465455;26;20439;-69
2024/04/21 10:53:03;;;;;;;;;;;;;;;-144.99;50.98;52374.72;5475628;26;20258;-69
2024/04/21 10:55:30;;;;;;;;;;;;;;;-144.99;50.74;52415.47;5481284;26;20029;-69
2024/04/21 10:57:59;;;;;;;;;;;;;;;-144.99;50.84;52378.78;5476516;26;19928;-70
2024/04/21 11:00:25;;;;;;;;;;;;;;;-144.99;50.63;52264.66;5470065;26;19999;-69
2024/04/21 11:02:53;;;;;;;;;;;;;;;-144.99;50.56;52280.97;5473472;26;20382;-69
2024/04/21 11:05:22;;;;;;;;;;;;;;;-144.99;50.43;52289.13;5474123;26;19943;-69
2024/04/21 11:07:51;;;;;;;;;;;;;;;-144.99;49.77;52248.34;5466268;26;20468;-69
2024/04/21 11:10:17;;;;;;;;;;;;;;;-144.99;49.23;52236.13;5470996;26;19935;-70
2024/04/21 11:12:46;;;;;;;;;;;;;;;-144.99;47.72;52268.72;5474868;26;19928;-70
2024/04/21 11:15:11;;;;;;;;;;;;;;;-144.99;47.81;52223.88;5481285;26;19936;-70
2024/04/21 11:17:40;;;;;;;;;;;;;;;-144.99;47.17;52305.41;5480259;26;19990;-69
2024/04/21 11:20:08;;;;;;;;;;;;;;;-144.99;47.12;52354.34;5475749;26;19932;-70
2024/04/21 11:22:40;;;;;;;;;;;;;;;-144.99;47.33;52321.72;5447746;26;19929;-70
2024/04/21 11:25:07;;;;;;;;;;;;;;;-144.99;47.75;52372.69;5479630;26;19938;-69
2024/04/21 11:27:37;;;;;;;;;;;;;;;-144.99;48.44;52374.72;5480021;26;19928;-70
2024/04/21 11:30:04;;;;;;;;;;;;;;;-144.99;48.17;52378.78;5469463;26;20000;-70
2024/04/21 11:32:33;;;;;;;;;;;;;;;-144.99;48.37;52352.28;5467645;26;20407;-70
2024/04/21 11:34:59;;;;;;;;;;;;;;;-144.99;48.59;52362.50;5467547;26;19935;-69
2024/04/21 11:37:28;;;;;;;;;;;;;;;-144.99;48.02;52268.72;5478576;26;19935;-69
2024/04/21 11:39:57;;;;;;;;;;;;;;;-144.99;47.11;52240.19;5480124;26;20051;-69
2024/04/21 11:42:25;;;;;;;;;;;;;;;-144.99;46.72;52325.81;5477611;26;20199;-69
2024/04/21 11:44:52;;;;;;;;;;;;;;;-144.99;46.86;52309.50;5466489;26;19996;-70
2024/04/21 11:47:22;;;;;;;;;;;;;;;-144.99;46.33;52372.69;5460277;26;20342;-69
2024/04/21 11:49:48;;;;;;;;;;;;;;;-144.99;46.63;52346.19;5465050;26;19960;-70
2024/04/21 11:52:17;;;;;;;;;;;;;;;-144.99;47.16;52384.91;5478171;26;19935;-70
2024/04/21 11:54:43;;;;;;;;;;;;;;;-144.99;47.88;52354.34;5462905;26;19928;-70
2024/04/21 11:57:14;;;;;;;;;;;;;;;-144.99;47.47;52342.09;5478423;26;19996;-69
2024/04/21 11:59:40;;;;;;;;;;;;;;;-144.99;48.24;52342.09;5479696;26;20413;-69
2024/04/21 12:02:09;;;;;;;;;;;;;;;-144.99;47.90;52391.03;5478177;26;20001;-70
2024/04/21 12:04:35;;;;;;;;;;;;;;;-144.99;47.68;52285.03;5468029;26;20261;-70
2024/04/21 12:07:04;;;;;;;;;;;;;;;-144.99;47.66;52285.03;5479166;26;20276;-69
2024/04/21 12:09:30;;;;;;;;;;;;;;;-144.99;47.77;52331.91;5482010;26;19935;-70
2024/04/21 12:11:59;;;;;;;;;;;;;;;-144.99;48.07;52378.78;5481459;26;19944;-69
2024/04/21 12:14:28;;;;;;;;;;;;;;;-144.99;48.23;52386.94;5480868;26;19928;-69
2024/04/21 12:16:57;;;;;;;;;;;;;;;-144.99;48.64;52366.56;5471053;26;20424;-69
2024/04/21 12:19:24;;;;;;;;;;;;;;;-144.99;48.34;52338.03;5482369;26;20558;-69
2024/04/21 12:21:52;;;;;;;;;;;;;;;-144.99;48.43;52333.94;5450638;26;19986;-69
2024/04/21 12:24:20;;;;;;;;;;;;;;;-144.99;48.19;52366.56;5483195;26;20719;-69
2024/04/21 12:26:48;;;;;;;;;;;;;;;-144.99;48.37;52362.50;5471376;26;19977;-69